Time;durP1;ratioP1;P1;durP2;ratioP2;P2;SDS_P1;SDS_P2;PMS_P1;PMS_P2;Temp;Humidity;BMP_temperature;BMP_pressure;BME280_temperature;BME280_humidity;BME280_pressure;Samples;Min_cycle;Max_cycle;Signal;HPM_P1;HPM_P2
2024/03/10 00:02:00;;;;;;;4.15;2.80;;;12.90;99.90;;;;;;7389526;19;20405;-80
2024/03/10 00:04:29;;;;;;;7.43;3.25;;;12.80;99.90;;;;;;7410197;19;20078;-79
2024/03/10 00:07:10;;;;;;;5.15;3.10;;;12.90;99.90;;;;;;7382389;19;20366;-78
2024/03/10 00:09:41;;;;;;;6.53;3.30;;;12.80;99.90;;;;;;7383630;19;20007;-79
2024/03/10 00:12:22;;;;;;;4.30;2.92;;;12.90;99.90;;;;;;7385460;19;20070;-77
2024/03/10 00:14:51;;;;;;;5.22;3.55;;;12.80;99.90;;;;;;7383320;19;20022;-80
2024/03/10 00:18:11;;;;;;;;;;;;;;;;;;;;;
2024/03/10 00:20:44;;;;;;;4.85;2.97;;;12.80;99.90;;;;;;7404747;19;20013;-81
2024/03/10 00:23:16;;;;;;;6.22;3.08;;;12.90;99.90;;;;;;7384907;19;20007;-82
2024/03/10 00:26:31;;;;;;;6.82;3.80;;;12.90;99.90;;;;;;7408821;19;20017;-80
2024/03/10 00:32:40;;;;;;;5.43;3.50;;;12.90;99.90;;;;;;7387614;19;19990;-81
2024/03/10 00:35:14;;;;;;;5.65;3.50;;;12.80;99.90;;;;;;7384164;19;20232;-80
2024/03/10 00:37:46;;;;;;;7.35;3.72;;;12.90;99.90;;;;;;7408838;19;20014;-80
2024/03/10 00:40:15;;;;;;;3.90;3.25;;;12.80;99.90;;;;;;7387456;19;20010;-80
2024/03/10 00:42:55;;;;;;;57.47;5.30;;;12.90;99.90;;;;;;7386769;19;20143;-80
2024/03/10 00:45:24;;;;;;;6.18;3.95;;;12.90;99.90;;;;;;7387622;19;20273;-80
2024/03/10 00:48:02;;;;;;;8.63;4.05;;;12.90;99.90;;;;;;7386933;19;20014;-79
2024/03/10 00:50:41;;;;;;;7.18;4.47;;;12.80;99.90;;;;;;7386288;19;20011;-79
2024/03/10 00:53:21;;;;;;;10.00;4.00;;;12.90;99.90;;;;;;7387107;19;20290;-79
2024/03/10 00:55:57;;;;;;;6.80;4.50;;;12.80;99.90;;;;;;7393703;19;20006;-79
2024/03/10 00:58:35;;;;;;;12.68;4.47;;;12.90;99.90;;;;;;7409054;19;20250;-79
2024/03/10 01:01:05;;;;;;;6.05;3.97;;;12.90;99.90;;;;;;7386290;19;20098;-79
2024/03/10 01:03:49;;;;;;;6.60;4.57;;;12.90;99.90;;;;;;7386580;19;20074;-81
2024/03/10 01:06:20;;;;;;;6.68;4.00;;;12.90;99.90;;;;;;7389455;19;20243;-80
2024/03/10 01:08:50;;;;;;;5.90;3.58;;;13.00;99.90;;;;;;7393236;19;20026;-80
2024/03/10 01:11:30;;;;;;;10.65;4.30;;;13.00;99.90;;;;;;7389409;19;20007;-79
2024/03/10 01:14:05;;;;;;;6.35;4.20;;;12.90;99.90;;;;;;7388645;19;20075;-78
2024/03/10 01:16:50;;;;;;;;;;;;;;;;;;;;;
2024/03/10 01:19:27;;;;;;;7.30;4.20;;;12.90;99.90;;;;;;7387964;19;20663;-79
2024/03/10 01:21:59;;;;;;;7.55;4.40;;;12.90;99.90;;;;;;7388720;19;20006;-79
2024/03/10 01:24:30;;;;;;;7.25;4.30;;;12.90;99.90;;;;;;7388906;19;19999;-79
2024/03/10 01:27:27;;;;;;;;;;;;;;;;;;;;;
2024/03/10 01:29:59;;;;;;;9.82;3.50;;;12.90;99.90;;;;;;7384625;19;20010;-78
2024/03/10 01:32:29;;;;;;;;;;;12.90;99.90;;;;;;7387624;19;20017;-77
2024/03/10 01:35:05;;;;;;;6.05;3.17;;;12.90;99.90;;;;;;7385029;19;19917;-79
2024/03/10 01:37:40;;;;;;;4.72;3.15;;;12.90;99.90;;;;;;7406887;19;20018;-80
2024/03/10 01:40:12;;;;;;;4.28;2.83;;;12.90;99.90;;;;;;7386549;19;20026;-80
2024/03/10 01:42:44;;;;;;;3.63;2.58;;;12.90;99.90;;;;;;7386013;19;20031;-78
2024/03/10 01:45:14;;;;;;;;;;;13.00;99.90;;;;;;7387369;19;20066;-81
2024/03/10 01:47:47;;;;;;;6.87;2.40;;;13.00;99.90;;;;;;7386289;19;19943;-79
2024/03/10 01:50:24;;;;;;;4.72;2.50;;;13.00;99.90;;;;;;7352665;19;20004;-80
2024/03/10 01:52:53;;;;;;;5.30;3.35;;;13.00;99.90;;;;;;7400805;19;20306;-78
2024/03/10 01:55:22;;;;;;;4.70;3.13;;;13.00;99.90;;;;;;7383530;19;20327;-78
2024/03/10 01:57:55;;;;;;;5.30;3.13;;;13.00;99.90;;;;;;7383535;19;20006;-78
2024/03/10 02:00:23;;;;;;;3.40;2.72;;;13.00;99.90;;;;;;7384299;19;20101;-78
2024/03/10 02:02:52;;;;;;;3.08;2.25;;;13.00;99.90;;;;;;7385815;19;20007;-78
2024/03/10 02:05:25;;;;;;;2.53;2.33;;;13.00;99.90;;;;;;7385092;19;20014;-78
2024/03/10 02:07:56;;;;;;;4.38;2.28;;;13.00;99.90;;;;;;7388514;19;20011;-78
2024/03/10 02:10:25;;;;;;;3.38;2.20;;;13.00;99.90;;;;;;7405189;19;20487;-78
2024/03/10 02:12:55;;;;;;;4.88;2.22;;;13.00;99.90;;;;;;7382925;19;20121;-78
2024/03/10 02:15:24;;;;;;;2.85;2.22;;;12.90;99.90;;;;;;7383442;19;20006;-78
2024/03/10 02:17:53;;;;;;;2.47;2.00;;;13.00;99.90;;;;;;7386373;19;20007;-78
2024/03/10 02:20:26;;;;;;;3.90;2.10;;;12.90;99.90;;;;;;7386540;19;20010;-79
2024/03/10 02:22:55;;;;;;;4.65;2.22;;;12.90;99.90;;;;;;7408189;19;20006;-78
2024/03/10 02:25:34;;;;;;;4.88;2.28;;;12.90;99.90;;;;;;7384619;19;20033;-77
2024/03/10 02:28:09;;;;;;;2.83;2.33;;;12.90;99.90;;;;;;7382180;19;20013;-78
2024/03/10 02:30:42;;;;;;;3.10;2.55;;;13.00;99.90;;;;;;7384511;19;20011;-79
2024/03/10 02:49:28;;;;;;;3.03;1.80;;;12.90;99.90;;;;;;7394542;19;20010;-79
2024/03/10 02:51:56;;;;;;;4.05;2.25;;;12.90;99.90;;;;;;7385181;19;20070;-78
2024/03/10 02:54:25;;;;;;;3.13;1.85;;;12.90;99.90;;;;;;7384186;19;20400;-79
2024/03/10 02:56:54;;;;;;;2.40;1.63;;;12.90;99.90;;;;;;7383407;19;20006;-79
2024/03/10 02:59:25;;;;;;;2.00;1.70;;;12.90;99.90;;;;;;7385208;19;20031;-79
2024/03/10 03:01:54;;;;;;;2.00;1.70;;;12.90;99.90;;;;;;7406271;19;20007;-79
2024/03/10 03:04:26;;;;;;;3.15;1.60;;;13.00;99.90;;;;;;7381837;19;20074;-78
2024/03/10 03:06:55;;;;;;;3.03;1.48;;;13.00;99.90;;;;;;7382080;19;20003;-79
2024/03/10 03:09:25;;;;;;;1.85;1.27;;;13.00;99.90;;;;;;7381871;19;20290;-78
2024/03/10 03:11:54;;;;;;;2.10;1.20;;;12.90;99.90;;;;;;7382795;19;20011;-78
2024/03/10 03:14:26;;;;;;;4.10;1.50;;;13.00;99.90;;;;;;7383121;19;20049;-77
2024/03/10 03:16:55;;;;;;;4.57;2.13;;;13.00;99.90;;;;;;7403119;19;20030;-77
2024/03/10 03:19:24;;;;;;;5.32;1.30;;;13.00;99.90;;;;;;7381525;19;20011;-78
2024/03/10 03:21:53;;;;;;;2.28;1.48;;;13.00;99.90;;;;;;7381245;19;20006;-78
2024/03/10 03:24:23;;;;;;;1.58;1.38;;;13.00;99.90;;;;;;7382230;19;20006;-78
2024/03/10 03:26:53;;;;;;;2.67;1.48;;;13.00;99.90;;;;;;7381280;19;20003;-78
2024/03/10 03:29:23;;;;;;;2.83;1.50;;;12.90;99.90;;;;;;7380075;19;20006;-78
2024/03/10 03:31:54;;;;;;;2.85;1.35;;;13.00;99.90;;;;;;7402991;19;20011;-78
2024/03/10 03:34:23;;;;;;;4.45;1.40;;;12.90;99.90;;;;;;7381063;19;20017;-77
2024/03/10 03:36:52;;;;;;;2.35;1.40;;;13.00;99.90;;;;;;7378858;19;20022;-78
2024/03/10 03:39:20;;;;;;;2.20;1.40;;;13.00;99.90;;;;;;7380918;19;20062;-77
2024/03/10 03:41:49;;;;;;;1.60;1.50;;;13.00;99.90;;;;;;7380247;19;20014;-77
2024/03/10 03:44:20;;;;;;;8.75;1.50;;;13.00;99.90;;;;;;7378550;19;20039;-78
2024/03/10 03:46:48;;;;;;;2.22;1.42;;;13.00;99.90;;;;;;7399536;19;20070;-77
2024/03/10 03:49:19;;;;;;;2.10;1.20;;;12.90;99.90;;;;;;7378803;19;20389;-77
2024/03/10 03:51:48;;;;;;;2.28;1.40;;;12.90;99.90;;;;;;7380775;19;20002;-78
2024/03/10 03:54:17;;;;;;;2.03;1.42;;;12.90;99.90;;;;;;7380929;19;20007;-77
2024/03/10 03:56:46;;;;;;;2.47;1.50;;;12.90;99.90;;;;;;7381273;19;20020;-77
2024/03/10 03:59:14;;;;;;;1.70;1.50;;;12.90;99.90;;;;;;7384672;19;20067;-77
2024/03/10 04:01:45;;;;;;;3.75;1.25;;;12.90;99.90;;;;;;7409076;19;20028;-77
2024/03/10 04:04:16;;;;;;;2.05;1.38;;;12.90;99.90;;;;;;7385499;19;20376;-78
2024/03/10 04:06:47;;;;;;;;;;;12.90;99.90;;;;;;7389920;19;20017;-78
2024/03/10 04:09:16;;;;;;;1.52;1.33;;;12.90;99.90;;;;;;7389475;19;20223;-78
2024/03/10 04:11:45;;;;;;;3.80;1.63;;;12.90;99.90;;;;;;7388749;19;20581;-77
2024/03/10 04:14:14;;;;;;;7.75;1.73;;;12.90;99.90;;;;;;7387162;19;20027;-78
2024/03/10 04:16:43;;;;;;;2.83;1.70;;;12.90;99.90;;;;;;7412968;19;20070;-79
2024/03/10 04:19:11;;;;;;;3.42;2.28;;;12.90;99.90;;;;;;7389100;19;20020;-78
2024/03/10 04:21:40;;;;;;;4.05;2.00;;;12.90;99.90;;;;;;7391951;19;20010;-78
2024/03/10 04:24:12;;;;;;;2.80;2.10;;;12.90;99.90;;;;;;7386534;19;20007;-78
2024/03/10 04:26:42;;;;;;;;;;;12.90;99.90;;;;;;7388551;19;20007;-79
2024/03/10 04:29:11;;;;;;;2.78;1.80;;;12.90;99.90;;;;;;7387728;19;19922;-78
2024/03/10 04:31:40;;;;;;;2.78;1.90;;;12.90;99.90;;;;;;7406924;19;20062;-79
2024/03/10 04:34:11;;;;;;;2.70;1.88;;;12.80;99.90;;;;;;7386184;19;20007;-79
2024/03/10 04:36:39;;;;;;;1.73;1.60;;;12.80;99.90;;;;;;7385772;19;20002;-78
2024/03/10 04:39:12;;;;;;;2.45;2.00;;;12.80;99.90;;;;;;7387864;19;20007;-80
2024/03/10 04:41:40;;;;;;;2.78;1.80;;;12.90;99.90;;;;;;7384928;19;20283;-79
2024/03/10 04:44:09;;;;;;;8.75;2.20;;;12.90;99.90;;;;;;7387352;19;20027;-79
2024/03/10 04:46:39;;;;;;;4.45;2.17;;;12.90;99.90;;;;;;7408266;19;20008;-79
2024/03/10 04:49:09;;;;;;;2.70;2.13;;;12.80;99.90;;;;;;7387350;19;20009;-78
2024/03/10 04:51:38;;;;;;;3.00;1.90;;;12.80;99.90;;;;;;7387922;19;20011;-79
2024/03/10 04:54:09;;;;;;;3.38;1.77;;;12.80;99.90;;;;;;7387409;19;20696;-79
2024/03/10 04:56:43;;;;;;;2.15;1.77;;;12.80;99.90;;;;;;7386289;19;20023;-78
2024/03/10 04:59:11;;;;;;;2.38;2.03;;;12.90;99.90;;;;;;7386152;19;20011;-78
2024/03/10 05:01:41;;;;;;;2.88;1.70;;;12.90;99.90;;;;;;7405814;19;20304;-78
2024/03/10 05:04:10;;;;;;;2.58;1.75;;;12.80;99.90;;;;;;7386883;19;20011;-79
2024/03/10 05:06:38;;;;;;;3.17;1.45;;;12.90;99.90;;;;;;7387589;19;20018;-79
2024/03/10 05:09:08;;;;;;;2.13;1.40;;;12.80;99.90;;;;;;7385757;19;20003;-78
2024/03/10 05:11:50;;;;;;;1.80;1.30;;;12.80;99.90;;;;;;7387558;19;20007;-79
2024/03/10 05:14:30;;;;;;;1.05;0.95;;;12.80;99.90;;;;;;7393570;19;19999;-78
2024/03/10 05:26:49;;;;;;;2.40;1.10;;;12.90;99.90;;;;;;7185808;19;2004312;-77
2024/03/10 05:29:27;;;;;;;1.35;1.10;;;12.80;99.90;;;;;;7394275;19;20350;-77
2024/03/10 05:31:56;;;;;;;1.40;0.90;;;12.80;99.90;;;;;;7406982;19;20062;-77
2024/03/10 05:34:26;;;;;;;1.08;0.80;;;12.90;99.90;;;;;;7383140;19;20006;-78
2024/03/10 05:36:55;;;;;;;1.27;0.82;;;12.90;99.90;;;;;;7383702;19;20007;-78
2024/03/10 05:39:24;;;;;;;3.30;1.10;;;12.90;99.90;;;;;;7385273;19;20005;-77
2024/03/10 05:41:55;;;;;;;1.00;0.80;;;12.80;99.90;;;;;;7384381;19;20006;-79
2024/03/10 05:44:24;;;;;;;;;;;12.90;99.90;;;;;;7387761;19;20222;-79
2024/03/10 05:46:52;;;;;;;1.20;0.82;;;12.90;99.90;;;;;;7408587;19;19963;-79
2024/03/10 05:49:21;;;;;;;1.65;0.95;;;12.80;99.90;;;;;;7385178;19;20007;-77
2024/03/10 05:51:50;;;;;;;2.88;1.10;;;12.80;99.90;;;;;;7384178;19;20575;-78
2024/03/10 05:54:19;;;;;;;1.40;1.10;;;12.80;99.90;;;;;;7384050;19;20430;-78
2024/03/10 05:56:47;;;;;;;1.55;1.20;;;12.80;99.90;;;;;;7384467;19;20003;-79
2024/03/10 05:59:19;;;;;;;1.10;0.98;;;12.80;99.90;;;;;;7384906;19;20003;-79
2024/03/10 06:01:47;;;;;;;;;;;12.80;99.90;;;;;;7409710;19;20011;-78
2024/03/10 06:04:16;;;;;;;0.98;0.88;;;12.90;99.90;;;;;;7385372;19;20133;-78
2024/03/10 06:06:45;;;;;;;1.13;1.00;;;12.80;99.90;;;;;;7383404;19;20007;-80
2024/03/10 06:09:15;;;;;;;1.45;1.00;;;12.80;99.90;;;;;;7383810;19;20043;-78
2024/03/10 06:11:44;;;;;;;1.00;0.85;;;12.80;99.90;;;;;;7383662;19;20006;-78
2024/03/10 06:14:13;;;;;;;1.17;1.08;;;12.80;99.90;;;;;;7383076;19;20240;-78
2024/03/10 06:16:44;;;;;;;0.98;0.90;;;12.80;99.90;;;;;;7404041;19;20010;-79
2024/03/10 06:27:16;;;;;;;1.90;1.23;;;12.70;99.90;;;;;;7383461;19;20011;-78
2024/03/10 06:29:45;;;;;;;1.05;0.95;;;12.70;99.90;;;;;;7382091;19;20006;-78
2024/03/10 06:32:16;;;;;;;2.25;1.00;;;12.80;99.90;;;;;;7397771;19;20006;-79
2024/03/10 06:34:45;;;;;;;;;;;12.70;99.90;;;;;;7404153;19;20031;-79
2024/03/10 06:37:13;;;;;;;4.10;1.42;;;12.80;99.90;;;;;;7382628;19;20243;-79
2024/03/10 06:39:42;;;;;;;1.48;1.00;;;12.70;99.90;;;;;;7385233;19;20007;-79
2024/03/10 06:42:11;;;;;;;1.17;1.08;;;12.80;99.90;;;;;;7383502;19;20007;-79
2024/03/10 06:44:40;;;;;;;1.42;1.08;;;12.80;99.90;;;;;;7384487;19;20377;-79
2024/03/10 06:47:09;;;;;;;0.95;0.80;;;12.80;99.90;;;;;;7404278;19;20346;-80
2024/03/10 06:49:41;;;;;;;1.38;1.17;;;12.80;99.90;;;;;;7382546;19;20014;-77
2024/03/10 06:52:10;;;;;;;2.25;1.30;;;12.80;99.90;;;;;;7382695;19;20023;-78
2024/03/10 06:54:38;;;;;;;1.30;1.20;;;12.80;99.90;;;;;;7385063;19;20015;-80
2024/03/10 06:57:10;;;;;;;1.33;1.20;;;12.80;99.90;;;;;;7385132;19;20033;-79
2024/03/10 06:59:39;;;;;;;4.22;2.42;;;12.80;99.90;;;;;;7383836;19;20107;-79
2024/03/10 07:02:11;;;;;;;3.28;1.80;;;12.80;99.90;;;;;;7402004;19;20350;-79
2024/03/10 07:04:44;;;;;;;3.50;2.85;;;12.80;99.90;;;;;;7382664;19;20323;-79
2024/03/10 07:07:13;;;;;;;3.15;1.60;;;12.80;99.90;;;;;;7382049;19;20007;-78
2024/03/10 07:09:44;;;;;;;62.78;4.18;;;12.80;99.90;;;;;;7381678;19;20002;-78
2024/03/10 07:12:13;;;;;;;2.30;2.10;;;12.80;99.90;;;;;;7382867;19;20007;-81
2024/03/10 07:14:42;;;;;;;1.85;1.25;;;12.90;99.90;;;;;;7383261;19;20010;-79
2024/03/10 07:17:11;;;;;;;1.77;1.25;;;12.90;99.90;;;;;;7404153;19;20025;-79
2024/03/10 07:19:42;;;;;;;1.35;1.10;;;12.90;99.90;;;;;;7382065;19;20373;-78
2024/03/10 07:22:11;;;;;;;1.17;1.08;;;12.90;99.90;;;;;;7381220;19;20362;-79
2024/03/10 07:24:40;;;;;;;3.63;1.52;;;12.90;99.90;;;;;;7382457;19;20006;-79
2024/03/10 07:27:09;;;;;;;1.73;1.40;;;12.90;99.90;;;;;;7381821;19;20007;-79
2024/03/10 07:29:39;;;;;;;1.35;1.25;;;12.90;99.90;;;;;;7386277;19;20011;-79
2024/03/10 07:32:08;;;;;;;1.80;1.55;;;13.00;99.90;;;;;;7408196;19;20010;-79
2024/03/10 07:34:38;;;;;;;1.85;1.58;;;12.90;99.90;;;;;;7381458;19;20388;-78
2024/03/10 07:37:10;;;;;;;3.60;1.55;;;13.00;99.90;;;;;;7382788;19;20057;-78
2024/03/10 07:39:39;;;;;;;2.78;1.63;;;13.00;99.90;;;;;;7382678;19;20018;-79
2024/03/10 07:42:08;;;;;;;2.80;1.52;;;13.00;99.90;;;;;;7381045;19;20203;-79
2024/03/10 07:44:37;;;;;;;2.42;1.50;;;13.00;99.90;;;;;;7379720;19;20002;-79
2024/03/10 07:47:07;;;;;;;6.25;1.50;;;13.00;99.90;;;;;;7403672;19;20011;-80
2024/03/10 07:49:38;;;;;;;3.20;1.55;;;13.00;99.90;;;;;;7387186;19;20049;-80
2024/03/10 07:52:10;;;;;;;5.72;2.50;;;13.00;99.90;;;;;;7387360;19;20270;-80
2024/03/10 07:54:41;;;;;;;6.25;2.10;;;13.00;99.90;;;;;;7386084;19;20350;-79
2024/03/10 07:57:10;;;;;;;2.93;2.17;;;12.90;99.90;;;;;;7393532;19;20007;-78
2024/03/10 07:59:38;;;;;;;2.28;1.65;;;13.00;99.90;;;;;;7397443;19;20003;-78
2024/03/10 08:02:07;;;;;;;2.30;1.60;;;13.00;99.90;;;;;;7418149;19;20018;-78
2024/03/10 08:04:36;;;;;;;3.50;1.50;;;12.90;99.90;;;;;;7397095;19;20018;-77
2024/03/10 08:07:07;;;;;;;2.28;1.52;;;12.90;99.90;;;;;;7383913;19;20058;-80
2024/03/10 08:09:39;;;;;;;2.70;2.00;;;12.90;99.90;;;;;;7390941;19;20018;-78
2024/03/10 08:12:08;;;;;;;;;;;12.90;99.90;;;;;;7388397;19;20353;-79
2024/03/10 08:14:38;;;;;;;2.35;1.70;;;13.00;99.90;;;;;;7383748;19;19918;-79
2024/03/10 08:17:07;;;;;;;7.93;1.77;;;13.00;99.90;;;;;;7405232;19;20041;-78
2024/03/10 08:19:36;;;;;;;2.67;1.67;;;13.00;99.90;;;;;;7382334;19;20003;-78
2024/03/10 08:22:05;;;;;;;3.10;1.48;;;13.00;99.90;;;;;;7382459;19;20003;-78
2024/03/10 08:24:34;;;;;;;2.05;1.40;;;13.00;99.90;;;;;;7382551;19;20380;-78
2024/03/10 08:27:08;;;;;;;3.83;1.85;;;13.00;99.90;;;;;;7379971;19;20002;-79
2024/03/10 08:29:37;;;;;;;2.65;1.83;;;13.00;99.90;;;;;;7384175;19;20031;-80
2024/03/10 08:32:06;;;;;;;3.03;2.35;;;13.00;99.90;;;;;;7405040;19;20457;-79
2024/03/10 08:34:35;;;;;;;2.83;2.03;;;13.00;99.90;;;;;;7382666;19;20066;-78
2024/03/10 08:37:04;;;;;;;2.72;1.88;;;13.00;99.90;;;;;;7381863;19;20028;-78
2024/03/10 08:39:33;;;;;;;2.45;2.20;;;13.00;99.90;;;;;;7382997;19;20023;-78
2024/03/10 08:42:06;;;;;;;3.05;1.90;;;12.90;99.90;;;;;;7381701;19;20011;-79
2024/03/10 08:44:36;;;;;;;4.30;2.40;;;12.90;99.90;;;;;;7385241;19;20006;-79
2024/03/10 08:47:05;;;;;;;2.13;1.90;;;13.00;99.90;;;;;;7412445;19;20010;-79
2024/03/10 08:49:34;;;;;;;2.70;1.98;;;13.00;99.90;;;;;;7390651;19;20017;-80
2024/03/10 08:52:05;;;;;;;4.13;2.28;;;13.10;99.90;;;;;;7389842;19;20385;-80
2024/03/10 08:54:34;;;;;;;;;;;13.10;99.90;;;;;;7387755;19;20002;-79
2024/03/10 08:57:09;;;;;;;2.40;1.98;;;13.10;99.90;;;;;;7385945;19;19957;-79
2024/03/10 08:59:38;;;;;;;4.70;2.38;;;13.10;99.90;;;;;;7386268;19;20288;-79
2024/03/10 09:02:06;;;;;;;3.63;2.22;;;13.10;99.90;;;;;;7406583;19;20031;-79
2024/03/10 09:04:36;;;;;;;3.72;2.65;;;13.20;99.90;;;;;;7386824;19;20003;-79
2024/03/10 09:07:05;;;;;;;2.78;2.10;;;13.20;99.90;;;;;;7388587;19;20006;-80
2024/03/10 09:09:34;;;;;;;3.88;2.70;;;13.30;99.90;;;;;;7386135;19;20062;-79
2024/03/10 09:12:06;;;;;;;6.28;2.45;;;13.30;99.90;;;;;;7388633;19;20056;-79
2024/03/10 09:14:35;;;;;;;4.15;2.20;;;13.40;99.90;;;;;;7387706;19;20136;-79
2024/03/10 09:17:04;;;;;;;3.80;2.15;;;13.40;99.90;;;;;;7408914;19;20038;-79
2024/03/10 09:19:33;;;;;;;4.53;2.28;;;13.40;99.90;;;;;;7386125;19;20002;-79
2024/03/10 09:22:04;;;;;;;2.97;2.33;;;13.40;99.90;;;;;;7386208;19;20067;-79
2024/03/10 09:24:33;;;;;;;2.35;2.08;;;13.40;99.90;;;;;;7387106;19;20426;-78
2024/03/10 09:27:03;;;;;;;6.70;3.33;;;13.40;99.90;;;;;;7385200;19;20006;-79
2024/03/10 09:29:34;;;;;;;3.72;2.47;;;13.30;99.90;;;;;;7389465;19;20014;-79
2024/03/10 09:32:06;;;;;;;;;;;13.30;99.90;;;;;;7411261;19;20071;-79
2024/03/10 09:34:36;;;;;;;;;;;13.40;99.90;;;;;;7388664;19;20612;-79
2024/03/10 09:37:06;;;;;;;5.80;2.13;;;13.40;99.90;;;;;;7386444;19;19911;-79
2024/03/10 09:39:35;;;;;;;4.95;2.30;;;13.50;99.90;;;;;;7384163;19;20083;-80
2024/03/10 09:42:04;;;;;;;3.53;2.38;;;13.50;99.90;;;;;;7385299;19;20010;-80
2024/03/10 09:44:37;;;;;;;3.25;2.50;;;13.60;99.90;;;;;;7408772;19;20299;-79
2024/03/10 09:47:07;;;;;;;2.70;2.10;;;13.60;99.90;;;;;;7387289;19;20232;-80
2024/03/10 09:49:37;;;;;;;4.60;2.90;;;13.60;99.90;;;;;;7385598;19;20385;-80
2024/03/10 09:52:08;;;;;;;2.77;2.20;;;13.60;99.90;;;;;;7385217;19;20023;-79
2024/03/10 09:54:38;;;;;;;3.72;2.40;;;13.60;99.90;;;;;;7384842;19;20022;-79
2024/03/10 09:57:08;;;;;;;4.65;2.78;;;13.70;99.90;;;;;;7383364;19;20026;-79
2024/03/10 09:59:44;;;;;;;4.15;2.50;;;13.70;99.90;;;;;;7387136;19;20031;-78
2024/03/10 10:02:24;;;;;;;4.40;3.10;;;13.70;99.90;;;;;;7406430;19;20031;-79
2024/03/10 10:04:56;;;;;;;4.53;2.75;;;13.70;99.90;;;;;;7384084;19;20003;-79
2024/03/10 10:07:26;;;;;;;4.47;2.67;;;13.60;99.90;;;;;;7385505;19;20034;-79
2024/03/10 10:09:59;;;;;;;5.03;2.83;;;13.70;99.90;;;;;;7384920;19;20019;-79
2024/03/10 10:12:28;;;;;;;3.65;3.03;;;13.70;99.90;;;;;;7384771;19;20044;-78
2024/03/10 10:15:00;;;;;;;4.05;3.00;;;13.70;99.90;;;;;;7384644;19;20011;-79
2024/03/10 10:17:32;;;;;;;;;;;13.80;99.90;;;;;;7404331;19;20014;-79
2024/03/10 10:20:01;;;;;;;4.38;3.17;;;13.80;99.90;;;;;;7381589;19;19967;-79
2024/03/10 10:22:30;;;;;;;3.92;2.78;;;13.90;99.90;;;;;;7384124;19;20018;-78
2024/03/10 10:25:09;;;;;;;4.15;2.97;;;13.80;99.90;;;;;;7382902;19;20002;-78
2024/03/10 10:27:49;;;;;;;4.78;2.95;;;13.70;99.90;;;;;;7385376;19;20023;-80
2024/03/10 10:30:27;;;;;;;12.07;5.25;;;13.60;99.90;;;;;;7386201;19;20007;-80
2024/03/10 10:33:06;;;;;;;3.22;2.42;;;13.60;99.90;;;;;;7386207;19;20016;-79
2024/03/10 10:35:39;;;;;;;4.22;3.10;;;13.70;99.90;;;;;;7404751;19;20007;-80
2024/03/10 10:38:13;;;;;;;3.90;2.88;;;13.70;99.90;;;;;;7384171;19;20363;-79
2024/03/10 10:40:45;;;;;;;4.72;3.05;;;13.70;99.90;;;;;;7382909;19;20006;-80
2024/03/10 10:43:16;;;;;;;3.25;2.40;;;13.70;99.90;;;;;;7386776;19;20007;-80
2024/03/10 10:45:48;;;;;;;3.55;2.65;;;13.80;99.90;;;;;;7387119;19;20010;-79
2024/03/10 10:48:18;;;;;;;4.22;2.92;;;13.80;99.90;;;;;;7395172;19;20007;-80
2024/03/10 10:50:48;;;;;;;2.75;2.42;;;13.80;99.90;;;;;;7394366;19;20124;-80
2024/03/10 10:53:17;;;;;;;4.25;2.65;;;13.80;99.90;;;;;;7414663;19;20022;-79
2024/03/10 10:55:46;;;;;;;3.92;2.80;;;13.90;99.90;;;;;;7393524;19;20010;-80
2024/03/10 10:58:16;;;;;;;4.18;3.00;;;13.90;99.90;;;;;;7384816;19;20268;-80
2024/03/10 11:00:59;;;;;;;8.95;3.22;;;13.90;99.90;;;;;;7387224;19;20010;-79
2024/03/10 11:03:32;;;;;;;5.43;2.60;;;13.90;99.90;;;;;;7383559;19;20003;-78
2024/03/10 11:06:34;;;;;;;3.83;3.10;;;14.00;99.90;;;;;;7383157;19;20377;-78
2024/03/10 11:09:14;;;;;;;4.30;2.80;;;14.10;99.90;;;;;;7381805;19;20342;-79
2024/03/10 11:11:52;;;;;;;5.88;3.30;;;14.10;99.90;;;;;;7382716;19;20018;-79
2024/03/10 11:14:31;;;;;;;3.78;2.70;;;14.20;99.90;;;;;;7405413;19;20015;-79
2024/03/10 11:17:22;;;;;;;6.72;3.20;;;14.20;99.90;;;;;;7384244;19;20027;-78
2024/03/10 11:20:01;;;;;;;4.15;3.03;;;14.20;99.90;;;;;;7381519;19;20028;-78
2024/03/10 11:22:35;;;;;;;6.28;3.45;;;14.20;99.90;;;;;;7383659;19;20014;-78
2024/03/10 11:25:32;;;;;;;6.93;3.25;;;14.20;99.90;;;;;;7384762;19;20026;-80
2024/03/10 11:28:06;;;;;;;4.13;3.25;;;14.20;99.90;;;;;;7384474;19;20070;-79
2024/03/10 11:30:54;;;;;;;10.43;3.33;;;14.20;99.90;;;;;;7385664;19;20006;-80
2024/03/10 11:33:40;;;;;;;6.15;3.80;;;14.20;99.90;;;;;;7383326;19;19999;-78
2024/03/10 11:36:16;;;;;;;4.38;3.40;;;14.20;99.90;;;;;;7382356;19;20412;-79
2024/03/10 11:39:00;;;;;;;5.95;3.67;;;14.10;99.90;;;;;;7381417;19;20011;-79
2024/03/10 11:41:31;;;;;;;5.88;3.95;;;14.20;99.90;;;;;;7404111;19;20054;-81
2024/03/10 11:44:06;;;;;;;6.40;4.03;;;14.10;99.90;;;;;;7384435;19;20050;-79
2024/03/10 11:46:39;;;;;;;6.68;3.00;;;14.10;99.90;;;;;;7383939;19;20007;-79
2024/03/10 11:49:14;;;;;;;3.13;2.55;;;14.10;99.90;;;;;;7385193;19;20046;-78
2024/03/10 11:51:46;;;;;;;3.42;2.40;;;14.10;99.90;;;;;;7382396;19;20011;-81
2024/03/10 11:54:19;;;;;;;2.65;2.05;;;14.10;99.90;;;;;;7384716;19;20030;-79
2024/03/10 11:56:54;;;;;;;4.53;2.85;;;14.10;99.90;;;;;;7382301;19;20019;-80
2024/03/10 11:59:35;;;;;;;2.88;2.58;;;14.10;99.90;;;;;;7405302;19;20034;-79
2024/03/10 12:02:29;;;;;;;4.25;2.67;;;14.10;99.90;;;;;;7383130;19;20010;-79
2024/03/10 12:05:09;;;;;;;3.83;2.17;;;14.00;99.90;;;;;;7383439;19;20026;-79
2024/03/10 12:07:51;;;;;;;3.63;2.15;;;14.10;99.90;;;;;;7382914;19;20014;-79
2024/03/10 12:13:29;;;;;;;;;;;;;;;;;;;;;
2024/03/10 12:16:21;;;;;;;2.40;1.98;;;14.30;99.90;;;;;;7382788;19;20009;-79
2024/03/10 12:18:55;;;;;;;6.55;2.83;;;14.30;99.90;;;;;;7385689;19;20014;-79
2024/03/10 12:21:36;;;;;;;6.13;3.30;;;14.40;99.90;;;;;;7389476;19;20030;-79
2024/03/10 12:24:10;;;;;;;5.95;2.20;;;14.40;99.90;;;;;;7390449;19;20019;-79
2024/03/10 12:26:53;;;;;;;3.40;2.17;;;14.40;99.90;;;;;;7414067;19;20007;-78
2024/03/10 12:29:24;;;;;;;3.63;2.15;;;14.50;99.90;;;;;;7390893;19;20011;-80
2024/03/10 12:32:01;;;;;;;3.30;2.00;;;14.50;99.90;;;;;;7387555;19;20006;-78
2024/03/10 12:34:33;;;;;;;2.13;1.90;;;14.50;99.90;;;;;;7388647;19;20011;-79
2024/03/10 12:37:12;;;;;;;2.63;2.08;;;14.50;99.90;;;;;;7390278;19;20023;-82
2024/03/10 12:39:41;;;;;;;3.70;1.98;;;14.60;99.90;;;;;;7393693;19;20046;-82
2024/03/10 12:42:16;;;;;;;2.13;1.90;;;14.60;99.90;;;;;;7389146;19;20243;-84
2024/03/10 12:44:56;;;;;;;2.30;1.80;;;14.70;99.90;;;;;;7390841;19;20018;-83
2024/03/10 12:58:09;;;;;;;3.75;2.25;;;14.60;99.90;;;;;;7390153;19;20006;-85
2024/03/10 13:04:06;;;;;;;2.20;1.98;;;14.70;99.90;;;;;;7409742;19;20027;-85
2024/03/10 13:09:23;;;;;;;4.03;2.20;;;14.70;99.90;;;;;;7383655;19;20010;-80
2024/03/10 13:11:56;;;;;;;2.67;1.90;;;14.70;99.90;;;;;;7383975;19;20007;-77
2024/03/10 13:14:25;;;;;;;2.65;2.00;;;14.70;99.90;;;;;;7408147;19;20381;-82
2024/03/10 13:16:56;;;;;;;2.17;1.80;;;14.70;99.90;;;;;;7366061;19;20010;-76
2024/03/10 13:19:25;;;;;;;2.10;1.90;;;14.70;99.90;;;;;;7402378;19;20026;-77
2024/03/10 13:22:00;;;;;;;2.88;1.77;;;14.70;99.90;;;;;;7384982;19;20006;-83
2024/03/10 13:49:49;;;;;;;3.08;2.08;;;14.50;99.90;;;;;;7353896;19;20226;-78
2024/03/10 13:52:18;;;;;;;;;;;14.40;99.90;;;;;;7388110;19;20022;-78
2024/03/10 13:54:50;;;;;;;3.70;1.80;;;14.50;99.90;;;;;;7386808;19;19911;-78
2024/03/10 13:57:20;;;;;;;2.85;2.10;;;14.50;99.90;;;;;;7384425;19;20013;-78
2024/03/10 13:59:58;;;;;;;2.72;2.17;;;14.50;99.90;;;;;;7396217;19;20014;-80
2024/03/10 14:02:27;;;;;;;5.15;2.50;;;14.50;99.90;;;;;;7406968;19;20244;-80
2024/03/10 14:05:00;;;;;;;5.45;2.40;;;14.50;99.90;;;;;;7390471;19;20011;-80
2024/03/10 14:07:29;;;;;;;6.35;2.08;;;14.50;99.90;;;;;;7386184;19;20010;-80
2024/03/10 14:09:58;;;;;;;3.65;2.28;;;14.60;99.90;;;;;;7382876;19;20222;-77
2024/03/10 14:12:27;;;;;;;2.40;2.20;;;14.70;99.90;;;;;;7383066;19;20354;-77
2024/03/10 14:14:56;;;;;;;3.30;2.22;;;14.80;99.90;;;;;;7383402;19;20034;-77
2024/03/10 14:17:24;;;;;;;3.05;2.20;;;14.90;99.90;;;;;;7405149;19;20015;-78
2024/03/10 14:19:54;;;;;;;3.13;2.03;;;15.10;99.90;;;;;;7382081;19;20112;-77
2024/03/10 14:22:26;;;;;;;3.95;2.25;;;15.20;99.90;;;;;;7381583;19;20009;-77
2024/03/10 14:24:55;;;;;;;3.05;2.20;;;15.30;99.90;;;;;;7381358;19;20022;-76
2024/03/10 14:30:34;;;;;;;3.17;2.50;;;15.50;99.90;;;;;;7384565;19;19995;-77
2024/03/10 14:33:03;;;;;;;4.13;2.47;;;15.60;99.90;;;;;;7382017;19;20015;-77
2024/03/10 14:35:32;;;;;;;2.83;2.10;;;15.60;99.90;;;;;;7401340;19;20023;-76
2024/03/10 14:38:04;;;;;;;4.65;2.38;;;15.50;99.90;;;;;;7380205;19;20430;-77
2024/03/10 14:40:33;;;;;;;7.22;2.33;;;15.50;99.90;;;;;;7378564;19;20007;-77
2024/03/10 14:43:04;;;;;;;2.72;2.20;;;15.50;99.90;;;;;;7378179;19;20006;-75
2024/03/10 14:45:34;;;;;;;2.58;2.03;;;15.40;99.90;;;;;;7380507;19;20026;-77
2024/03/10 14:48:03;;;;;;;2.88;2.08;;;15.30;99.90;;;;;;7380119;19;20353;-76